Nearby METAR Reports

 

EGTE - Exeter Airport, United Kingdom
Distance from station: NNE 25km
Updated: 14/08/2018 11:20
Partly cloudy
Partly cloudy
 Wind from W
Wind: W 7 mph , 11 km/h
Temperature: 22°C
Dew Point: 15°C
Humidity: 65%
Barometer: 1018 hPa
Clouds: Partly cloudy
Visibility: 6 miles , 10 km
Cloud details: Partly cloudy 914 m
2018/08/14 10:20 EGTE 141020Z 26006KT 220V300 9999 SCT030 22/15 Q1018
EGDY - Yeovilton (navy), United Kingdom
Distance from station: NE 83km
Updated: 14/08/2018 10:50
Partly cloudy
Partly cloudy
 Wind from WSW
Wind: WSW 10 mph , 17 km/h
Temperature: 22°C
Dew Point: 15°C
Humidity: 65%
Barometer: 1017 hPa
Clouds: Partly cloudy
Visibility: 6 miles , 10 km
Cloud details: Few Clouds 671 m
Partly cloudy 1311 m
2018/08/14 09:50 EGDY 140950Z 25009KT 9999 FEW022 SCT043 22/15 Q1017 BLU NOSIG
 
EGFF - Cardiff-Wales Ar, United Kingdom
Distance from station: N 99km
Updated: 14/08/2018 11:20
Mostly cloudy
Mostly cloudy
 Wind from W
Wind: W 17 mph , 28 km/h
Temperature: 19°C
Dew Point: 15°C
Humidity: 78%
Barometer: 1017 hPa
Clouds: Mostly cloudy
Visibility: 6 miles , 10 km
Cloud details: Partly cloudy 488 m
Mostly cloudy 1219 m
2018/08/14 10:20 EGFF 141020Z 28015KT 9999 SCT016 BKN040 19/15 Q1017
EGDX - St Athan Raf, United Kingdom
Distance from station: N 100km
Updated: 14/08/2018 10:50
Mostly cloudy
Mostly cloudy
 Wind from W
Wind: W 16 mph , 26 km/h
Temperature: 19°C
Dew Point: 15°C
Humidity: 78%
Barometer: 1017 hPa
Clouds: Mostly cloudy
Visibility: 6 miles , 10 km
Cloud details: Partly cloudy 396 m
Mostly cloudy 610 m
2018/08/14 09:50 EGDX 140950Z 27014KT 9999 SCT013 BKN020 19/15 Q1017 GRN
 
EGHQ - Newquay, United Kingdom
Distance from station: W 106km
Updated: 14/08/2018 11:20
Mist, Mostly cloudy
Mist, Mostly cloudy
 Wind from W
Wind: W 12 mph , 19 km/h
Temperature: 17°C
Dew Point: 16°C
Humidity: 94%
Barometer: 1019 hPa
Summary: Mist
Clouds: Mostly cloudy
Visibility: 2 miles , 4 km
Cloud details: Partly cloudy 30 m
Mostly cloudy 61 m
2018/08/14 10:20 EGHQ 141020Z 27010KT 4000 BR SCT001 BKN002 17/16 Q1019
EGGD - Bristol/Lulsgate, United Kingdom
Distance from station: NNE 111km
Updated: 14/08/2018 11:20
Mostly cloudy
Mostly cloudy
 Wind from WSW
Wind: WSW 17 mph , 28 km/h
Temperature: 19°C
Dew Point: 16°C
Humidity: 83%
Barometer: 1017 hPa
Clouds: Mostly cloudy
Visibility: 6 miles , 10 km
Cloud details: Partly cloudy 457 m
Mostly cloudy 579 m
2018/08/14 10:20 EGGD 141020Z AUTO 25015KT 9999 SCT015 BKN019 19/16 Q1017
 
EGHH - Bournemouth Airp, United Kingdom
Distance from station: ENE 122km
Updated: 14/08/2018 11:20
Partly cloudy
Partly cloudy
 Wind from W
Wind: W 10 mph , 17 km/h
Temperature: 22°C
Dew Point: 15°C
Humidity: 65%
Barometer: 1017 hPa
Clouds: Partly cloudy
Visibility: 6 miles , 10 km
Cloud details: Partly cloudy 762 m
Partly cloudy 1372 m
2018/08/14 10:20 EGHH 141020Z 26009KT 220V340 9999 SCT025 SCT045 22/15 Q1017
EGJA - Alderney/Channel, United Kingdom
Distance from station: SE 127km
Updated: 14/08/2018 11:20
Partly cloudy
Partly cloudy
 Wind from W
Wind: W 13 mph , 20 km/h
Temperature: 19°C
Dew Point: 17°C
Humidity: 88%
Barometer: 1019 hPa
Clouds: Partly cloudy
Visibility: 6 miles , 10 km
Cloud details: Partly cloudy 1433 m
2018/08/14 10:20 EGJA 141020Z 26011KT 9999 SCT047 19/17 Q1019
 
EGDR - Culdrose (navy), United Kingdom
Distance from station: WSW 133km
Updated: 14/08/2018 10:50
Light drizzle, Mostly cloudy
Light drizzle, Mostly cloudy
 Wind from W
Wind: W 9 mph , 15 km/h
Temperature: 18°C
Dew Point: 17°C
Humidity: 94%
Barometer: 1019 hPa
Summary: Light Drizzle
Clouds: Mostly cloudy
Visibility: 2 miles , 3 km
Cloud details: Few Clouds 91 m
Partly cloudy 122 m
Mostly cloudy 213 m
2018/08/14 09:50 EGDR 140950Z 28008KT 3000 -DZ FEW003 SCT004 BKN007 18/17 Q1019 YLO2 NOSIG
EGUO - Colerne Raf, United Kingdom
Distance from station: NE 134km
Updated: 21/03/2018 08:50
NOT Current
Clear
Clear
 Wind from W
Wind: W 6 mph , 9 km/h
Temperature: 5°C
Wind Chill: 3°C
Dew Point: 1°C
Humidity: 76%
Barometer: 1032 hPa
Clouds: Clear
Visibility: 6 miles , 10 km
2018/03/21 08:50 EGUO 210850Z 27005KT 9999 NCD 05/01 Q1032 BLU NOSIG
 
EGJB - Guernsey Airport, United Kingdom
Distance from station: SSE 137km
Updated: 14/08/2018 11:20
Mostly cloudy
Mostly cloudy
 Wind from WSW
Wind: WSW 15 mph , 24 km/h
Temperature: 19°C
Dew Point: 17°C
Humidity: 88%
Barometer: 1020 hPa
Clouds: Mostly cloudy
Visibility: 6 miles , 10 km
Cloud details: Few Clouds 213 m
Mostly cloudy 884 m
2018/08/14 10:20 EGJB 141020Z 25013KT 9999 FEW007 BKN029 19/17 Q1020
EGDM - Boscombe Down, United Kingdom
Distance from station: ENE 144km
Updated: 14/08/2018 10:50
Mostly cloudy
Mostly cloudy
 Wind from W
Wind: W 9 mph , 15 km/h
Temperature: 20°C
Dew Point: 14°C
Humidity: 69%
Barometer: 1017 hPa
Clouds: Mostly cloudy
Visibility: 6 miles , 10 km
Cloud details: Few Clouds 671 m
Mostly cloudy 1219 m
2018/08/14 09:50 EGDM 140950Z 26008KT 9999 FEW022 BKN040 20/14 Q1017 BLU
 
EGOP - Pembry Sands, United Kingdom
Distance from station: NNW 147km
Updated: 14/08/2018 10:58
Mostly cloudy
Mostly cloudy
 Wind from WSW
Wind: WSW 21 mph , 33 km/h
Temperature: 18°C
Dew Point: 16°C
Humidity: 88%
Barometer: 1017 hPa
Clouds: Mostly cloudy
Visibility: 6 miles , 10 km
Cloud details: Partly cloudy 335 m
Mostly cloudy 671 m
2018/08/14 09:58 EGOP 140958Z 25018KT 9999 SCT011 BKN022 18/16 Q1017 GRN
EGVP - Middle Wallop, United Kingdom
Distance from station: ENE 153km
Updated: 14/08/2018 10:50
Mostly cloudy
Mostly cloudy
 Wind from W
Wind: W 9 mph , 15 km/h
Temperature: 19°C
Dew Point: 13°C
Humidity: 68%
Barometer: 1017 hPa
Clouds: Mostly cloudy
Visibility: 6 miles , 10 km
Cloud details: Few Clouds 823 m
Mostly cloudy 1372 m
2018/08/14 09:50 EGVP 140950Z 26008KT 9999 FEW027 BKN045 19/13 Q1017 BLU NOSIG
 
EGHI - Southampton Wx C, United Kingdom
Distance from station: ENE 159km
Updated: 14/08/2018 11:20
Mostly cloudy
Mostly cloudy
 Wind from W
Wind: W 9 mph , 15 km/h
Temperature: 19°C
Dew Point: 11°C
Humidity: 60%
Barometer: 1017 hPa
Clouds: Mostly cloudy
Visibility: 6 miles , 10 km
Cloud details: Mostly cloudy 1341 m
2018/08/14 10:20 EGHI 141020Z 28008KT 230V320 9999 BKN044 19/11 Q1017